sensor_id;sensor_type;location;lat;lon;timestamp;P1;durP1;ratioP1;P2;durP2;ratioP2
10154;SDS011;5118;48.570;7.916;2023-07-24T00:01:54;14.63;;;9.67;;
10154;SDS011;5118;48.570;7.916;2023-07-24T00:04:22;12.60;;;9.30;;
10154;SDS011;5118;48.570;7.916;2023-07-24T00:06:50;13.93;;;10.27;;
10154;SDS011;5118;48.570;7.916;2023-07-24T00:09:20;17.23;;;9.93;;
10154;SDS011;5118;48.570;7.916;2023-07-24T00:11:49;12.07;;;10.00;;
10154;SDS011;5118;48.570;7.916;2023-07-24T00:14:17;12.37;;;10.00;;
10154;SDS011;5118;48.570;7.916;2023-07-24T00:16:45;13.13;;;10.17;;
10154;SDS011;5118;48.570;7.916;2023-07-24T00:19:13;10.93;;;9.37;;
10154;SDS011;5118;48.570;7.916;2023-07-24T00:21:42;12.57;;;9.70;;
10154;SDS011;5118;48.570;7.916;2023-07-24T00:24:10;11.83;;;9.93;;
10154;SDS011;5118;48.570;7.916;2023-07-24T00:26:40;13.27;;;9.63;;
10154;SDS011;5118;48.570;7.916;2023-07-24T00:29:08;12.07;;;9.43;;
10154;SDS011;5118;48.570;7.916;2023-07-24T00:31:37;13.20;;;9.77;;
10154;SDS011;5118;48.570;7.916;2023-07-24T00:34:05;10.10;;;8.90;;
10154;SDS011;5118;48.570;7.916;2023-07-24T00:36:33;11.50;;;8.90;;
10154;SDS011;5118;48.570;7.916;2023-07-24T00:39:01;10.80;;;8.87;;
10154;SDS011;5118;48.570;7.916;2023-07-24T00:41:30;10.77;;;8.73;;
10154;SDS011;5118;48.570;7.916;2023-07-24T00:43:59;9.47;;;8.20;;
10154;SDS011;5118;48.570;7.916;2023-07-24T00:46:28;12.00;;;8.80;;
10154;SDS011;5118;48.570;7.916;2023-07-24T00:48:59;10.53;;;8.73;;
10154;SDS011;5118;48.570;7.916;2023-07-24T00:51:31;10.83;;;8.90;;
10154;SDS011;5118;48.570;7.916;2023-07-24T00:54:01;11.20;;;9.17;;
10154;SDS011;5118;48.570;7.916;2023-07-24T00:56:30;12.90;;;9.33;;
10154;SDS011;5118;48.570;7.916;2023-07-24T00:59:01;13.50;;;9.70;;
10154;SDS011;5118;48.570;7.916;2023-07-24T01:01:29;12.40;;;10.20;;
10154;SDS011;5118;48.570;7.916;2023-07-24T01:03:58;13.50;;;10.17;;
10154;SDS011;5118;48.570;7.916;2023-07-24T01:06:26;10.47;;;9.33;;
10154;SDS011;5118;48.570;7.916;2023-07-24T01:08:55;11.73;;;9.90;;
10154;SDS011;5118;48.570;7.916;2023-07-24T01:11:24;11.43;;;10.07;;
10154;SDS011;5118;48.570;7.916;2023-07-24T01:13:56;14.40;;;10.63;;
10154;SDS011;5118;48.570;7.916;2023-07-24T01:16:35;13.13;;;10.20;;
10154;SDS011;5118;48.570;7.916;2023-07-24T01:19:07;11.97;;;10.03;;
10154;SDS011;5118;48.570;7.916;2023-07-24T01:21:44;13.27;;;10.73;;
10154;SDS011;5118;48.570;7.916;2023-07-24T01:24:29;12.27;;;9.83;;
10154;SDS011;5118;48.570;7.916;2023-07-24T01:27:03;12.70;;;9.70;;
10154;SDS011;5118;48.570;7.916;2023-07-24T01:29:31;13.20;;;10.13;;
10154;SDS011;5118;48.570;7.916;2023-07-24T01:32:00;12.70;;;9.63;;
10154;SDS011;5118;48.570;7.916;2023-07-24T01:34:28;11.43;;;9.27;;
10154;SDS011;5118;48.570;7.916;2023-07-24T01:36:56;10.57;;;8.90;;
10154;SDS011;5118;48.570;7.916;2023-07-24T01:39:25;11.83;;;9.10;;
10154;SDS011;5118;48.570;7.916;2023-07-24T01:41:54;13.67;;;9.67;;
10154;SDS011;5118;48.570;7.916;2023-07-24T01:44:24;13.13;;;9.00;;
10154;SDS011;5118;48.570;7.916;2023-07-24T01:46:52;10.90;;;9.20;;
10154;SDS011;5118;48.570;7.916;2023-07-24T01:49:21;11.03;;;9.67;;
10154;SDS011;5118;48.570;7.916;2023-07-24T01:51:49;12.33;;;9.63;;
10154;SDS011;5118;48.570;7.916;2023-07-24T01:54:17;10.70;;;8.87;;
10154;SDS011;5118;48.570;7.916;2023-07-24T01:56:46;12.87;;;9.67;;
10154;SDS011;5118;48.570;7.916;2023-07-24T01:59:14;11.50;;;9.07;;
10154;SDS011;5118;48.570;7.916;2023-07-24T02:01:44;11.13;;;9.47;;
10154;SDS011;5118;48.570;7.916;2023-07-24T02:04:12;12.50;;;9.07;;
10154;SDS011;5118;48.570;7.916;2023-07-24T02:06:40;12.07;;;9.07;;
10154;SDS011;5118;48.570;7.916;2023-07-24T02:09:09;10.73;;;8.63;;
10154;SDS011;5118;48.570;7.916;2023-07-24T02:11:38;11.33;;;8.87;;
10154;SDS011;5118;48.570;7.916;2023-07-24T02:14:06;10.57;;;8.30;;
10154;SDS011;5118;48.570;7.916;2023-07-24T02:16:35;9.53;;;8.47;;
10154;SDS011;5118;48.570;7.916;2023-07-24T02:19:05;10.43;;;8.83;;
10154;SDS011;5118;48.570;7.916;2023-07-24T02:21:33;10.57;;;8.80;;
10154;SDS011;5118;48.570;7.916;2023-07-24T02:24:02;11.87;;;9.00;;
10154;SDS011;5118;48.570;7.916;2023-07-24T02:26:30;10.57;;;8.83;;
10154;SDS011;5118;48.570;7.916;2023-07-24T02:29:01;10.93;;;9.23;;
10154;SDS011;5118;48.570;7.916;2023-07-24T02:31:29;11.33;;;8.83;;
10154;SDS011;5118;48.570;7.916;2023-07-24T02:33:58;12.33;;;9.27;;
10154;SDS011;5118;48.570;7.916;2023-07-24T02:36:27;11.60;;;9.67;;
10154;SDS011;5118;48.570;7.916;2023-07-24T02:38:56;10.60;;;8.90;;
10154;SDS011;5118;48.570;7.916;2023-07-24T02:41:25;11.33;;;8.80;;
10154;SDS011;5118;48.570;7.916;2023-07-24T02:43:53;10.97;;;9.00;;
10154;SDS011;5118;48.570;7.916;2023-07-24T02:46:21;10.07;;;8.93;;
10154;SDS011;5118;48.570;7.916;2023-07-24T02:48:51;9.80;;;8.80;;
10154;SDS011;5118;48.570;7.916;2023-07-24T02:51:20;9.80;;;8.80;;
10154;SDS011;5118;48.570;7.916;2023-07-24T02:53:49;9.83;;;8.53;;
10154;SDS011;5118;48.570;7.916;2023-07-24T02:56:18;10.20;;;8.87;;
10154;SDS011;5118;48.570;7.916;2023-07-24T02:58:47;9.97;;;8.43;;
10154;SDS011;5118;48.570;7.916;2023-07-24T03:01:15;9.87;;;8.87;;
10154;SDS011;5118;48.570;7.916;2023-07-24T03:03:44;9.80;;;8.77;;
10154;SDS011;5118;48.570;7.916;2023-07-24T03:06:12;10.27;;;8.90;;
10154;SDS011;5118;48.570;7.916;2023-07-24T03:08:40;10.17;;;8.20;;
10154;SDS011;5118;48.570;7.916;2023-07-24T03:11:10;10.43;;;8.13;;
10154;SDS011;5118;48.570;7.916;2023-07-24T03:13:38;10.33;;;8.73;;
10154;SDS011;5118;48.570;7.916;2023-07-24T03:16:08;11.03;;;8.87;;
10154;SDS011;5118;48.570;7.916;2023-07-24T03:18:37;9.03;;;8.10;;
10154;SDS011;5118;48.570;7.916;2023-07-24T03:21:05;11.70;;;8.63;;
10154;SDS011;5118;48.570;7.916;2023-07-24T03:23:33;11.17;;;8.50;;
10154;SDS011;5118;48.570;7.916;2023-07-24T03:26:02;9.73;;;8.73;;
10154;SDS011;5118;48.570;7.916;2023-07-24T03:28:31;9.03;;;8.10;;
10154;SDS011;5118;48.570;7.916;2023-07-24T03:30:59;10.80;;;8.47;;
10154;SDS011;5118;48.570;7.916;2023-07-24T03:33:28;10.23;;;8.03;;
10154;SDS011;5118;48.570;7.916;2023-07-24T03:35:58;9.93;;;8.33;;
10154;SDS011;5118;48.570;7.916;2023-07-24T03:38:27;10.67;;;8.37;;
10154;SDS011;5118;48.570;7.916;2023-07-24T03:40:55;10.10;;;8.60;;
10154;SDS011;5118;48.570;7.916;2023-07-24T03:43:24;9.73;;;7.73;;
10154;SDS011;5118;48.570;7.916;2023-07-24T03:45:53;11.37;;;8.80;;
10154;SDS011;5118;48.570;7.916;2023-07-24T03:48:22;10.80;;;8.20;;
10154;SDS011;5118;48.570;7.916;2023-07-24T03:50:56;10.83;;;8.43;;
10154;SDS011;5118;48.570;7.916;2023-07-24T03:53:26;9.17;;;8.13;;
10154;SDS011;5118;48.570;7.916;2023-07-24T03:55:54;9.37;;;8.40;;
10154;SDS011;5118;48.570;7.916;2023-07-24T03:58:23;9.50;;;8.50;;
10154;SDS011;5118;48.570;7.916;2023-07-24T04:00:51;10.67;;;9.27;;
10154;SDS011;5118;48.570;7.916;2023-07-24T04:03:21;10.00;;;8.83;;
10154;SDS011;5118;48.570;7.916;2023-07-24T04:05:49;9.67;;;8.07;;
10154;SDS011;5118;48.570;7.916;2023-07-24T04:08:18;10.60;;;8.53;;
10154;SDS011;5118;48.570;7.916;2023-07-24T04:10:46;9.60;;;8.00;;
10154;SDS011;5118;48.570;7.916;2023-07-24T04:13:14;10.47;;;9.03;;
10154;SDS011;5118;48.570;7.916;2023-07-24T04:15:43;11.80;;;8.07;;
10154;SDS011;5118;48.570;7.916;2023-07-24T04:18:11;9.47;;;8.40;;
10154;SDS011;5118;48.570;7.916;2023-07-24T04:20:41;9.73;;;8.70;;
10154;SDS011;5118;48.570;7.916;2023-07-24T04:23:09;10.60;;;8.53;;
10154;SDS011;5118;48.570;7.916;2023-07-24T04:25:37;10.87;;;8.60;;
10154;SDS011;5118;48.570;7.916;2023-07-24T04:28:06;12.03;;;9.00;;
10154;SDS011;5118;48.570;7.916;2023-07-24T04:30:34;12.70;;;9.23;;
10154;SDS011;5118;48.570;7.916;2023-07-24T04:33:02;11.83;;;9.00;;
10154;SDS011;5118;48.570;7.916;2023-07-24T04:35:31;10.83;;;8.43;;
10154;SDS011;5118;48.570;7.916;2023-07-24T04:38:01;9.63;;;8.23;;
10154;SDS011;5118;48.570;7.916;2023-07-24T04:40:30;10.23;;;9.10;;
10154;SDS011;5118;48.570;7.916;2023-07-24T04:42:58;10.50;;;8.80;;
10154;SDS011;5118;48.570;7.916;2023-07-24T04:45:26;10.70;;;8.87;;
10154;SDS011;5118;48.570;7.916;2023-07-24T04:47:55;10.17;;;8.60;;
10154;SDS011;5118;48.570;7.916;2023-07-24T04:50:23;12.77;;;8.57;;
10154;SDS011;5118;48.570;7.916;2023-07-24T04:52:51;9.60;;;8.60;;
10154;SDS011;5118;48.570;7.916;2023-07-24T04:55:21;10.23;;;9.17;;
10154;SDS011;5118;48.570;7.916;2023-07-24T04:57:50;10.30;;;8.83;;
10154;SDS011;5118;48.570;7.916;2023-07-24T05:00:18;10.57;;;9.07;;
10154;SDS011;5118;48.570;7.916;2023-07-24T05:02:47;11.97;;;8.97;;
10154;SDS011;5118;48.570;7.916;2023-07-24T05:05:15;9.57;;;8.57;;
10154;SDS011;5118;48.570;7.916;2023-07-24T05:07:44;11.20;;;8.60;;
10154;SDS011;5118;48.570;7.916;2023-07-24T05:10:12;10.77;;;8.60;;
10154;SDS011;5118;48.570;7.916;2023-07-24T05:12:42;9.90;;;8.90;;
10154;SDS011;5118;48.570;7.916;2023-07-24T05:15:10;9.97;;;8.70;;
10154;SDS011;5118;48.570;7.916;2023-07-24T05:17:39;10.67;;;8.70;;
10154;SDS011;5118;48.570;7.916;2023-07-24T05:20:08;10.60;;;9.23;;
10154;SDS011;5118;48.570;7.916;2023-07-24T05:22:37;9.27;;;8.27;;
10154;SDS011;5118;48.570;7.916;2023-07-24T05:25:05;10.87;;;8.97;;
10154;SDS011;5118;48.570;7.916;2023-07-24T05:27:34;11.30;;;8.30;;
10154;SDS011;5118;48.570;7.916;2023-07-24T05:30:06;10.07;;;8.90;;
10154;SDS011;5118;48.570;7.916;2023-07-24T05:32:35;13.80;;;11.07;;
10154;SDS011;5118;48.570;7.916;2023-07-24T05:35:03;18.30;;;15.57;;
10154;SDS011;5118;48.570;7.916;2023-07-24T05:37:32;12.57;;;11.03;;
10154;SDS011;5118;48.570;7.916;2023-07-24T05:40:00;12.20;;;9.77;;
10154;SDS011;5118;48.570;7.916;2023-07-24T05:42:28;10.03;;;8.67;;
10154;SDS011;5118;48.570;7.916;2023-07-24T05:44:56;10.50;;;8.77;;
10154;SDS011;5118;48.570;7.916;2023-07-24T05:47:27;10.77;;;9.10;;
10154;SDS011;5118;48.570;7.916;2023-07-24T05:49:55;10.07;;;8.97;;
10154;SDS011;5118;48.570;7.916;2023-07-24T05:52:23;10.30;;;9.02;;
10154;SDS011;5118;48.570;7.916;2023-07-24T05:54:51;10.10;;;8.85;;
10154;SDS011;5118;48.570;7.916;2023-07-24T05:57:20;11.27;;;8.75;;
10154;SDS011;5118;48.570;7.916;2023-07-24T05:59:48;9.77;;;8.70;;
10154;SDS011;5118;48.570;7.916;2023-07-24T06:02:17;12.18;;;8.45;;
10154;SDS011;5118;48.570;7.916;2023-07-24T06:04:47;9.70;;;8.65;;
10154;SDS011;5118;48.570;7.916;2023-07-24T06:07:15;9.40;;;8.40;;
10154;SDS011;5118;48.570;7.916;2023-07-24T06:09:43;10.13;;;8.50;;
10154;SDS011;5118;48.570;7.916;2023-07-24T06:12:11;9.70;;;8.70;;
10154;SDS011;5118;48.570;7.916;2023-07-24T06:14:40;11.45;;;8.55;;
10154;SDS011;5118;48.570;7.916;2023-07-24T06:17:08;10.20;;;7.85;;
10154;SDS011;5118;48.570;7.916;2023-07-24T06:19:36;10.25;;;8.00;;
10154;SDS011;5118;48.570;7.916;2023-07-24T06:22:07;9.98;;;8.13;;
10154;SDS011;5118;48.570;7.916;2023-07-24T06:24:35;9.82;;;8.82;;
10154;SDS011;5118;48.570;7.916;2023-07-24T06:27:04;12.10;;;8.05;;
10154;SDS011;5118;48.570;7.916;2023-07-24T06:29:34;10.13;;;7.88;;
10154;SDS011;5118;48.570;7.916;2023-07-24T06:32:05;10.88;;;8.50;;
10154;SDS011;5118;48.570;7.916;2023-07-24T06:34:34;9.10;;;8.00;;
10154;SDS011;5118;48.570;7.916;2023-07-24T06:37:02;9.50;;;8.48;;
10154;SDS011;5118;48.570;7.916;2023-07-24T06:39:47;9.55;;;8.55;;
10154;SDS011;5118;48.570;7.916;2023-07-24T06:42:16;9.93;;;8.27;;
10154;SDS011;5118;48.570;7.916;2023-07-24T06:44:44;9.93;;;7.53;;
10154;SDS011;5118;48.570;7.916;2023-07-24T06:47:12;9.82;;;8.32;;
10154;SDS011;5118;48.570;7.916;2023-07-24T06:49:40;11.82;;;8.52;;
10154;SDS011;5118;48.570;7.916;2023-07-24T06:52:09;9.98;;;8.50;;
10154;SDS011;5118;48.570;7.916;2023-07-24T06:54:37;10.70;;;8.38;;
10154;SDS011;5118;48.570;7.916;2023-07-24T06:57:06;10.20;;;8.90;;
10154;SDS011;5118;48.570;7.916;2023-07-24T06:59:35;10.73;;;8.68;;
10154;SDS011;5118;48.570;7.916;2023-07-24T07:02:03;9.98;;;8.57;;
10154;SDS011;5118;48.570;7.916;2023-07-24T07:04:32;14.23;;;9.68;;
10154;SDS011;5118;48.570;7.916;2023-07-24T07:07:00;15.38;;;10.38;;
10154;SDS011;5118;48.570;7.916;2023-07-24T07:09:28;13.07;;;10.48;;
10154;SDS011;5118;48.570;7.916;2023-07-24T07:11:56;15.50;;;10.85;;
10154;SDS011;5118;48.570;7.916;2023-07-24T07:14:26;15.90;;;10.50;;
10154;SDS011;5118;48.570;7.916;2023-07-24T07:16:55;15.15;;;10.68;;
10154;SDS011;5118;48.570;7.916;2023-07-24T07:19:23;12.83;;;11.00;;
10154;SDS011;5118;48.570;7.916;2023-07-24T07:21:52;12.73;;;9.93;;
10154;SDS011;5118;48.570;7.916;2023-07-24T07:24:20;14.07;;;10.10;;
10154;SDS011;5118;48.570;7.916;2023-07-24T07:26:48;14.40;;;10.90;;
10154;SDS011;5118;48.570;7.916;2023-07-24T07:29:17;11.40;;;10.20;;
10154;SDS011;5118;48.570;7.916;2023-07-24T07:31:47;12.30;;;10.20;;
10154;SDS011;5118;48.570;7.916;2023-07-24T07:34:15;14.93;;;11.37;;
10154;SDS011;5118;48.570;7.916;2023-07-24T07:36:44;16.17;;;11.80;;
10154;SDS011;5118;48.570;7.916;2023-07-24T07:39:12;15.50;;;11.43;;
10154;SDS011;5118;48.570;7.916;2023-07-24T07:41:41;13.87;;;11.10;;
10154;SDS011;5118;48.570;7.916;2023-07-24T07:44:09;13.82;;;11.57;;
10154;SDS011;5118;48.570;7.916;2023-07-24T07:46:38;15.70;;;11.70;;
10154;SDS011;5118;48.570;7.916;2023-07-24T07:49:07;14.48;;;11.60;;
10154;SDS011;5118;48.570;7.916;2023-07-24T07:51:36;15.80;;;11.18;;
10154;SDS011;5118;48.570;7.916;2023-07-24T07:54:04;14.97;;;11.73;;
10154;SDS011;5118;48.570;7.916;2023-07-24T07:56:33;15.25;;;10.98;;
10154;SDS011;5118;48.570;7.916;2023-07-24T07:59:01;13.40;;;10.35;;
10154;SDS011;5118;48.570;7.916;2023-07-24T08:01:30;12.18;;;9.93;;
10154;SDS011;5118;48.570;7.916;2023-07-24T08:03:58;11.95;;;9.88;;
10154;SDS011;5118;48.570;7.916;2023-07-24T08:06:29;11.77;;;8.95;;
10154;SDS011;5118;48.570;7.916;2023-07-24T08:08:58;10.98;;;9.43;;
10154;SDS011;5118;48.570;7.916;2023-07-24T08:11:26;11.38;;;9.55;;
10154;SDS011;5118;48.570;7.916;2023-07-24T08:13:55;11.02;;;9.27;;
10154;SDS011;5118;48.570;7.916;2023-07-24T08:16:23;10.52;;;9.40;;
10154;SDS011;5118;48.570;7.916;2023-07-24T08:18:51;10.27;;;8.80;;
10154;SDS011;5118;48.570;7.916;2023-07-24T08:21:23;12.73;;;9.63;;
10154;SDS011;5118;48.570;7.916;2023-07-24T08:23:53;8.73;;;7.57;;
10154;SDS011;5118;48.570;7.916;2023-07-24T08:26:21;10.10;;;8.48;;
10154;SDS011;5118;48.570;7.916;2023-07-24T08:28:51;9.93;;;8.80;;
10154;SDS011;5118;48.570;7.916;2023-07-24T08:31:19;10.25;;;8.10;;
10154;SDS011;5118;48.570;7.916;2023-07-24T08:33:48;8.23;;;7.43;;
10154;SDS011;5118;48.570;7.916;2023-07-24T08:36:16;8.90;;;7.68;;
10154;SDS011;5118;48.570;7.916;2023-07-24T08:38:45;8.40;;;7.40;;
10154;SDS011;5118;48.570;7.916;2023-07-24T08:41:15;9.80;;;7.05;;
10154;SDS011;5118;48.570;7.916;2023-07-24T08:43:43;9.52;;;8.00;;
10154;SDS011;5118;48.570;7.916;2023-07-24T08:46:12;10.27;;;7.50;;
10154;SDS011;5118;48.570;7.916;2023-07-24T08:48:42;8.45;;;7.20;;
10154;SDS011;5118;48.570;7.916;2023-07-24T08:51:11;7.47;;;6.70;;
10154;SDS011;5118;48.570;7.916;2023-07-24T08:53:42;8.88;;;7.50;;
10154;SDS011;5118;48.570;7.916;2023-07-24T08:56:11;9.25;;;7.65;;
10154;SDS011;5118;48.570;7.916;2023-07-24T08:58:42;8.07;;;7.20;;
10154;SDS011;5118;48.570;7.916;2023-07-24T09:01:11;8.80;;;7.47;;
10154;SDS011;5118;48.570;7.916;2023-07-24T09:03:39;8.52;;;7.60;;
10154;SDS011;5118;48.570;7.916;2023-07-24T09:06:08;8.88;;;7.18;;
10154;SDS011;5118;48.570;7.916;2023-07-24T09:08:39;8.15;;;7.35;;
10154;SDS011;5118;48.570;7.916;2023-07-24T09:11:09;8.45;;;7.65;;
10154;SDS011;5118;48.570;7.916;2023-07-24T09:13:41;8.52;;;7.63;;
10154;SDS011;5118;48.570;7.916;2023-07-24T09:16:20;10.77;;;7.50;;
10154;SDS011;5118;48.570;7.916;2023-07-24T09:18:51;9.13;;;7.68;;
10154;SDS011;5118;48.570;7.916;2023-07-24T09:21:27;8.25;;;7.38;;
10154;SDS011;5118;48.570;7.916;2023-07-24T09:23:56;8.32;;;7.20;;
10154;SDS011;5118;48.570;7.916;2023-07-24T09:26:25;8.60;;;7.47;;
10154;SDS011;5118;48.570;7.916;2023-07-24T09:28:56;9.68;;;8.05;;
10154;SDS011;5118;48.570;7.916;2023-07-24T09:31:33;10.10;;;8.10;;
10154;SDS011;5118;48.570;7.916;2023-07-24T09:34:03;9.52;;;7.80;;
10154;SDS011;5118;48.570;7.916;2023-07-24T09:36:36;8.70;;;7.88;;
10154;SDS011;5118;48.570;7.916;2023-07-24T09:39:05;10.77;;;8.52;;
10154;SDS011;5118;48.570;7.916;2023-07-24T09:41:37;11.70;;;8.93;;
10154;SDS011;5118;48.570;7.916;2023-07-24T09:44:11;9.90;;;8.40;;
10154;SDS011;5118;48.570;7.916;2023-07-24T09:46:43;11.65;;;8.63;;
10154;SDS011;5118;48.570;7.916;2023-07-24T09:49:31;9.98;;;8.68;;
10154;SDS011;5118;48.570;7.916;2023-07-24T09:51:59;9.75;;;8.48;;
10154;SDS011;5118;48.570;7.916;2023-07-24T09:54:37;10.45;;;8.55;;
10154;SDS011;5118;48.570;7.916;2023-07-24T09:57:13;9.85;;;8.65;;
10154;SDS011;5118;48.570;7.916;2023-07-24T09:59:49;10.60;;;8.80;;
10154;SDS011;5118;48.570;7.916;2023-07-24T10:02:20;13.90;;;8.57;;
10154;SDS011;5118;48.570;7.916;2023-07-24T10:04:50;12.77;;;7.93;;
10154;SDS011;5118;48.570;7.916;2023-07-24T10:07:19;9.65;;;8.60;;
10154;SDS011;5118;48.570;7.916;2023-07-24T10:09:49;10.32;;;8.55;;
10154;SDS011;5118;48.570;7.916;2023-07-24T10:12:18;10.30;;;7.63;;
10154;SDS011;5118;48.570;7.916;2023-07-24T10:14:47;8.82;;;7.63;;
10154;SDS011;5118;48.570;7.916;2023-07-24T10:17:24;9.45;;;8.43;;
10154;SDS011;5118;48.570;7.916;2023-07-24T10:20:03;8.88;;;7.30;;
10154;SDS011;5118;48.570;7.916;2023-07-24T10:22:32;9.70;;;8.00;;
10154;SDS011;5118;48.570;7.916;2023-07-24T10:25:02;8.40;;;7.50;;
10154;SDS011;5118;48.570;7.916;2023-07-24T10:27:31;8.70;;;7.90;;
10154;SDS011;5118;48.570;7.916;2023-07-24T10:30:05;8.63;;;7.72;;
10154;SDS011;5118;48.570;7.916;2023-07-24T10:32:53;9.82;;;7.78;;
10154;SDS011;5118;48.570;7.916;2023-07-24T10:35:36;9.88;;;8.32;;
10154;SDS011;5118;48.570;7.916;2023-07-24T10:38:09;11.23;;;8.48;;
10154;SDS011;5118;48.570;7.916;2023-07-24T10:40:38;10.00;;;8.15;;
10154;SDS011;5118;48.570;7.916;2023-07-24T10:43:08;9.55;;;8.55;;
10154;SDS011;5118;48.570;7.916;2023-07-24T10:45:46;9.35;;;8.13;;
10154;SDS011;5118;48.570;7.916;2023-07-24T10:48:16;11.02;;;8.05;;
10154;SDS011;5118;48.570;7.916;2023-07-24T10:50:46;11.15;;;8.45;;
10154;SDS011;5118;48.570;7.916;2023-07-24T10:53:20;10.23;;;8.23;;
10154;SDS011;5118;48.570;7.916;2023-07-24T10:55:50;8.68;;;7.60;;
10154;SDS011;5118;48.570;7.916;2023-07-24T10:58:19;9.82;;;7.85;;
10154;SDS011;5118;48.570;7.916;2023-07-24T11:00:53;8.48;;;7.68;;
10154;SDS011;5118;48.570;7.916;2023-07-24T11:03:22;8.35;;;7.32;;
10154;SDS011;5118;48.570;7.916;2023-07-24T11:05:52;8.13;;;7.32;;
10154;SDS011;5118;48.570;7.916;2023-07-24T11:08:22;8.52;;;7.68;;
10154;SDS011;5118;48.570;7.916;2023-07-24T11:10:51;7.85;;;7.05;;
10154;SDS011;5118;48.570;7.916;2023-07-24T11:13:21;7.38;;;6.68;;
10154;SDS011;5118;48.570;7.916;2023-07-24T11:15:50;7.88;;;6.45;;
10154;SDS011;5118;48.570;7.916;2023-07-24T11:18:21;8.32;;;6.45;;
10154;SDS011;5118;48.570;7.916;2023-07-24T11:21:11;7.50;;;6.47;;
10154;SDS011;5118;48.570;7.916;2023-07-24T11:23:44;6.93;;;6.05;;
10154;SDS011;5118;48.570;7.916;2023-07-24T11:26:13;8.18;;;6.95;;
10154;SDS011;5118;48.570;7.916;2023-07-24T11:28:43;7.93;;;7.13;;
10154;SDS011;5118;48.570;7.916;2023-07-24T11:31:11;10.25;;;7.95;;
10154;SDS011;5118;48.570;7.916;2023-07-24T11:33:43;8.52;;;7.65;;
10154;SDS011;5118;48.570;7.916;2023-07-24T11:36:12;7.78;;;6.97;;
10154;SDS011;5118;48.570;7.916;2023-07-24T11:38:41;8.25;;;7.32;;
10154;SDS011;5118;48.570;7.916;2023-07-24T11:41:09;9.68;;;8.35;;
10154;SDS011;5118;48.570;7.916;2023-07-24T11:43:45;9.13;;;7.75;;
10154;SDS011;5118;48.570;7.916;2023-07-24T11:46:22;8.98;;;8.05;;
10154;SDS011;5118;48.570;7.916;2023-07-24T11:48:53;8.90;;;8.00;;
10154;SDS011;5118;48.570;7.916;2023-07-24T11:51:25;11.20;;;8.75;;
10154;SDS011;5118;48.570;7.916;2023-07-24T11:54:05;11.25;;;8.52;;
10154;SDS011;5118;48.570;7.916;2023-07-24T11:56:35;13.30;;;9.35;;
10154;SDS011;5118;48.570;7.916;2023-07-24T11:59:10;19.33;;;8.98;;
10154;SDS011;5118;48.570;7.916;2023-07-24T12:01:39;12.40;;;9.25;;
10154;SDS011;5118;48.570;7.916;2023-07-24T12:04:09;10.70;;;8.70;;
10154;SDS011;5118;48.570;7.916;2023-07-24T12:06:38;11.20;;;9.50;;
10154;SDS011;5118;48.570;7.916;2023-07-24T12:09:06;10.75;;;9.63;;
10154;SDS011;5118;48.570;7.916;2023-07-24T12:11:38;11.27;;;9.20;;
10154;SDS011;5118;48.570;7.916;2023-07-24T12:14:12;12.10;;;9.38;;
10154;SDS011;5118;48.570;7.916;2023-07-24T12:16:42;10.70;;;9.43;;
10154;SDS011;5118;48.570;7.916;2023-07-24T12:19:12;14.13;;;10.00;;
10154;SDS011;5118;48.570;7.916;2023-07-24T12:21:40;9.88;;;8.57;;
10154;SDS011;5118;48.570;7.916;2023-07-24T12:24:09;9.80;;;8.80;;
10154;SDS011;5118;48.570;7.916;2023-07-24T12:26:37;13.43;;;9.13;;
10154;SDS011;5118;48.570;7.916;2023-07-24T12:29:05;10.57;;;9.48;;
10154;SDS011;5118;48.570;7.916;2023-07-24T12:31:34;11.82;;;9.95;;
10154;SDS011;5118;48.570;7.916;2023-07-24T12:34:03;12.32;;;10.18;;
10154;SDS011;5118;48.570;7.916;2023-07-24T12:36:33;12.35;;;10.65;;
10154;SDS011;5118;48.570;7.916;2023-07-24T12:39:01;14.68;;;10.27;;
10154;SDS011;5118;48.570;7.916;2023-07-24T12:41:31;11.23;;;9.30;;
10154;SDS011;5118;48.570;7.916;2023-07-24T12:44:00;9.77;;;8.57;;
10154;SDS011;5118;48.570;7.916;2023-07-24T12:46:28;9.95;;;8.90;;
10154;SDS011;5118;48.570;7.916;2023-07-24T12:48:57;9.50;;;8.50;;
10154;SDS011;5118;48.570;7.916;2023-07-24T12:51:25;8.93;;;8.02;;
10154;SDS011;5118;48.570;7.916;2023-07-24T12:53:55;7.88;;;7.07;;
10154;SDS011;5118;48.570;7.916;2023-07-24T12:56:37;7.78;;;6.93;;
10154;SDS011;5118;48.570;7.916;2023-07-24T12:59:06;7.35;;;6.55;;
10154;SDS011;5118;48.570;7.916;2023-07-24T13:01:34;7.30;;;6.60;;
10154;SDS011;5118;48.570;7.916;2023-07-24T13:04:03;7.47;;;6.65;;
10154;SDS011;5118;48.570;7.916;2023-07-24T13:06:32;7.22;;;6.38;;
10154;SDS011;5118;48.570;7.916;2023-07-24T13:09:02;6.20;;;5.60;;
10154;SDS011;5118;48.570;7.916;2023-07-24T13:11:31;6.78;;;5.45;;
10154;SDS011;5118;48.570;7.916;2023-07-24T13:13:59;7.97;;;5.13;;
10154;SDS011;5118;48.570;7.916;2023-07-24T13:16:28;4.65;;;4.25;;
10154;SDS011;5118;48.570;7.916;2023-07-24T13:18:57;5.35;;;4.85;;
10154;SDS011;5118;48.570;7.916;2023-07-24T13:21:25;4.75;;;4.30;;
10154;SDS011;5118;48.570;7.916;2023-07-24T13:23:54;4.80;;;4.40;;
10154;SDS011;5118;48.570;7.916;2023-07-24T13:26:25;4.80;;;4.25;;
10154;SDS011;5118;48.570;7.916;2023-07-24T13:28:54;5.05;;;4.60;;
10154;SDS011;5118;48.570;7.916;2023-07-24T13:31:22;4.80;;;4.40;;
10154;SDS011;5118;48.570;7.916;2023-07-24T13:33:51;6.30;;;4.43;;
10154;SDS011;5118;48.570;7.916;2023-07-24T13:36:19;4.82;;;4.32;;
10154;SDS011;5118;48.570;7.916;2023-07-24T13:38:48;5.07;;;4.10;;
10154;SDS011;5118;48.570;7.916;2023-07-24T13:41:16;4.78;;;4.30;;
10154;SDS011;5118;48.570;7.916;2023-07-24T13:43:46;4.60;;;4.20;;
10154;SDS011;5118;48.570;7.916;2023-07-24T13:46:15;4.47;;;4.07;;
10154;SDS011;5118;48.570;7.916;2023-07-24T13:48:43;4.28;;;3.88;;
10154;SDS011;5118;48.570;7.916;2023-07-24T13:51:12;4.47;;;4.05;;
10154;SDS011;5118;48.570;7.916;2023-07-24T13:53:40;4.78;;;4.07;;
10154;SDS011;5118;48.570;7.916;2023-07-24T13:56:09;4.70;;;4.30;;
10154;SDS011;5118;48.570;7.916;2023-07-24T13:58:37;4.45;;;4.03;;
10154;SDS011;5118;48.570;7.916;2023-07-24T14:01:07;4.78;;;4.38;;
10154;SDS011;5118;48.570;7.916;2023-07-24T14:03:35;4.15;;;3.75;;
10154;SDS011;5118;48.570;7.916;2023-07-24T14:06:04;5.68;;;4.07;;
10154;SDS011;5118;48.570;7.916;2023-07-24T14:08:32;4.15;;;3.72;;
10154;SDS011;5118;48.570;7.916;2023-07-24T14:11:01;4.35;;;3.95;;
10154;SDS011;5118;48.570;7.916;2023-07-24T14:13:30;4.32;;;3.90;;
10154;SDS011;5118;48.570;7.916;2023-07-24T14:15:59;4.03;;;3.72;;
10154;SDS011;5118;48.570;7.916;2023-07-24T14:18:28;4.22;;;3.80;;
10154;SDS011;5118;48.570;7.916;2023-07-24T14:20:57;4.30;;;4.00;;
10154;SDS011;5118;48.570;7.916;2023-07-24T14:23:26;3.90;;;3.58;;
10154;SDS011;5118;48.570;7.916;2023-07-24T14:25:54;4.88;;;3.72;;
10154;SDS011;5118;48.570;7.916;2023-07-24T14:28:23;4.85;;;3.83;;
10154;SDS011;5118;48.570;7.916;2023-07-24T14:30:51;4.20;;;3.90;;
10154;SDS011;5118;48.570;7.916;2023-07-24T14:33:20;4.35;;;3.95;;
10154;SDS011;5118;48.570;7.916;2023-07-24T14:35:50;4.13;;;3.83;;
10154;SDS011;5118;48.570;7.916;2023-07-24T14:38:19;4.25;;;3.90;;
10154;SDS011;5118;48.570;7.916;2023-07-24T14:40:47;4.68;;;4.28;;
10154;SDS011;5118;48.570;7.916;2023-07-24T14:43:16;4.90;;;4.50;;
10154;SDS011;5118;48.570;7.916;2023-07-24T14:45:44;5.00;;;4.25;;
10154;SDS011;5118;48.570;7.916;2023-07-24T14:48:13;4.88;;;4.47;;
10154;SDS011;5118;48.570;7.916;2023-07-24T14:50:43;5.18;;;4.78;;
10154;SDS011;5118;48.570;7.916;2023-07-24T14:53:13;4.82;;;4.43;;
10154;SDS011;5118;48.570;7.916;2023-07-24T14:55:41;4.57;;;4.18;;
10154;SDS011;5118;48.570;7.916;2023-07-24T14:58:10;5.07;;;4.60;;
10154;SDS011;5118;48.570;7.916;2023-07-24T15:00:38;5.40;;;4.60;;
10154;SDS011;5118;48.570;7.916;2023-07-24T15:03:07;5.20;;;4.72;;
10154;SDS011;5118;48.570;7.916;2023-07-24T15:05:35;6.25;;;4.70;;
10154;SDS011;5118;48.570;7.916;2023-07-24T15:08:04;5.10;;;4.60;;